sensor_id;sensor_type;location;lat;lon;timestamp;temperature;humidity
26049;DHT22;13822;51.568;5.086;2023-08-31T00:43:04;12.30;99.90
26049;DHT22;13822;51.568;5.086;2023-08-31T05:17:16;11.80;99.90
26049;DHT22;13822;51.568;5.086;2023-08-31T05:22:19;11.80;99.90
26049;DHT22;13822;51.568;5.086;2023-08-31T05:27:21;11.80;99.90
26049;DHT22;13822;51.568;5.086;2023-08-31T05:32:23;11.80;99.90
26049;DHT22;13822;51.568;5.086;2023-08-31T05:37:25;11.80;99.90
26049;DHT22;13822;51.568;5.086;2023-08-31T05:42:27;11.80;99.90
26049;DHT22;13822;51.568;5.086;2023-08-31T05:47:29;11.80;99.90
26049;DHT22;13822;51.568;5.086;2023-08-31T05:52:31;11.90;99.90
26049;DHT22;13822;51.568;5.086;2023-08-31T05:57:33;11.90;99.90
26049;DHT22;13822;51.568;5.086;2023-08-31T06:02:35;11.90;99.90
26049;DHT22;13822;51.568;5.086;2023-08-31T06:07:37;12.00;99.90
26049;DHT22;13822;51.568;5.086;2023-08-31T06:12:39;12.00;99.90
26049;DHT22;13822;51.568;5.086;2023-08-31T06:17:41;12.20;99.90
26049;DHT22;13822;51.568;5.086;2023-08-31T06:22:43;12.20;99.90
26049;DHT22;13822;51.568;5.086;2023-08-31T06:27:45;12.30;99.90
26049;DHT22;13822;51.568;5.086;2023-08-31T06:32:47;12.40;99.90
26049;DHT22;13822;51.568;5.086;2023-08-31T06:37:49;12.50;99.90
26049;DHT22;13822;51.568;5.086;2023-08-31T06:42:52;12.60;99.90
26049;DHT22;13822;51.568;5.086;2023-08-31T06:47:54;12.70;99.90
26049;DHT22;13822;51.568;5.086;2023-08-31T06:52:55;12.80;99.90
26049;DHT22;13822;51.568;5.086;2023-08-31T06:57:57;12.90;99.90
26049;DHT22;13822;51.568;5.086;2023-08-31T07:02:59;13.00;99.90
26049;DHT22;13822;51.568;5.086;2023-08-31T07:08:01;13.10;99.90
26049;DHT22;13822;51.568;5.086;2023-08-31T07:13:04;13.30;99.90
26049;DHT22;13822;51.568;5.086;2023-08-31T07:18:07;13.40;99.90
26049;DHT22;13822;51.568;5.086;2023-08-31T07:23:09;13.50;99.90
26049;DHT22;13822;51.568;5.086;2023-08-31T07:28:11;13.70;99.90
26049;DHT22;13822;51.568;5.086;2023-08-31T07:33:13;13.80;99.90
26049;DHT22;13822;51.568;5.086;2023-08-31T07:38:32;14.00;99.90
26049;DHT22;13822;51.568;5.086;2023-08-31T07:43:34;14.10;99.90
26049;DHT22;13822;51.568;5.086;2023-08-31T07:48:36;14.30;99.90
26049;DHT22;13822;51.568;5.086;2023-08-31T07:53:38;14.40;99.90
26049;DHT22;13822;51.568;5.086;2023-08-31T07:58:40;14.60;99.90
26049;DHT22;13822;51.568;5.086;2023-08-31T08:03:42;14.80;99.90
26049;DHT22;13822;51.568;5.086;2023-08-31T08:08:44;14.90;99.90
26049;DHT22;13822;51.568;5.086;2023-08-31T08:13:46;15.10;99.90
26049;DHT22;13822;51.568;5.086;2023-08-31T08:18:48;15.30;99.90
26049;DHT22;13822;51.568;5.086;2023-08-31T08:23:54;15.40;99.90
26049;DHT22;13822;51.568;5.086;2023-08-31T08:28:55;15.60;99.90
26049;DHT22;13822;51.568;5.086;2023-08-31T08:33:58;15.80;99.90
26049;DHT22;13822;51.568;5.086;2023-08-31T08:39:00;16.10;99.90
26049;DHT22;13822;51.568;5.086;2023-08-31T08:44:02;16.20;99.90
26049;DHT22;13822;51.568;5.086;2023-08-31T08:49:07;16.40;99.90
26049;DHT22;13822;51.568;5.086;2023-08-31T08:54:10;16.50;99.90
26049;DHT22;13822;51.568;5.086;2023-08-31T08:59:11;16.80;99.90
26049;DHT22;13822;51.568;5.086;2023-08-31T09:04:15;16.90;99.90
26049;DHT22;13822;51.568;5.086;2023-08-31T09:09:17;17.10;99.90
26049;DHT22;13822;51.568;5.086;2023-08-31T09:14:19;17.30;99.90
26049;DHT22;13822;51.568;5.086;2023-08-31T09:19:22;17.40;99.90
26049;DHT22;13822;51.568;5.086;2023-08-31T09:24:25;17.60;99.90
26049;DHT22;13822;51.568;5.086;2023-08-31T09:29:27;17.70;99.90
26049;DHT22;13822;51.568;5.086;2023-08-31T09:34:32;17.90;99.90
26049;DHT22;13822;51.568;5.086;2023-08-31T09:39:35;18.00;99.90
26049;DHT22;13822;51.568;5.086;2023-08-31T09:44:45;18.20;99.90
26049;DHT22;13822;51.568;5.086;2023-08-31T09:49:48;18.30;99.90
26049;DHT22;13822;51.568;5.086;2023-08-31T09:54:50;18.40;99.90
26049;DHT22;13822;51.568;5.086;2023-08-31T09:59:53;18.70;99.90
26049;DHT22;13822;51.568;5.086;2023-08-31T10:04:55;18.80;99.90
26049;DHT22;13822;51.568;5.086;2023-08-31T10:09:58;18.80;99.90
26049;DHT22;13822;51.568;5.086;2023-08-31T10:15:01;19.00;99.90
26049;DHT22;13822;51.568;5.086;2023-08-31T10:20:03;19.10;99.90
26049;DHT22;13822;51.568;5.086;2023-08-31T10:25:06;19.40;99.90
26049;DHT22;13822;51.568;5.086;2023-08-31T10:30:42;19.60;99.90
26049;DHT22;13822;51.568;5.086;2023-08-31T10:35:55;19.80;99.90
26049;DHT22;13822;51.568;5.086;2023-08-31T10:46:16;20.20;99.90
26049;DHT22;13822;51.568;5.086;2023-08-31T10:51:34;20.40;99.90
26049;DHT22;13822;51.568;5.086;2023-08-31T11:07:49;21.30;99.90
26049;DHT22;13822;51.568;5.086;2023-08-31T11:12:55;21.60;99.90
26049;DHT22;13822;51.568;5.086;2023-08-31T11:17:59;22.00;99.90
26049;DHT22;13822;51.568;5.086;2023-08-31T11:23:01;21.90;99.90
26049;DHT22;13822;51.568;5.086;2023-08-31T11:28:05;21.80;99.90
26049;DHT22;13822;51.568;5.086;2023-08-31T11:33:08;21.50;99.90
26049;DHT22;13822;51.568;5.086;2023-08-31T11:38:13;21.10;99.90
26049;DHT22;13822;51.568;5.086;2023-08-31T11:43:16;20.80;99.90
26049;DHT22;13822;51.568;5.086;2023-08-31T11:48:19;19.80;99.90
26049;DHT22;13822;51.568;5.086;2023-08-31T11:53:22;19.10;99.90
26049;DHT22;13822;51.568;5.086;2023-08-31T11:58:25;18.70;99.90
26049;DHT22;13822;51.568;5.086;2023-08-31T12:03:37;18.60;99.90
26049;DHT22;13822;51.568;5.086;2023-08-31T12:08:51;18.60;99.90
26049;DHT22;13822;51.568;5.086;2023-08-31T12:13:53;18.60;99.90
26049;DHT22;13822;51.568;5.086;2023-08-31T12:18:58;18.70;99.90
26049;DHT22;13822;51.568;5.086;2023-08-31T12:24:00;18.60;99.90
26049;DHT22;13822;51.568;5.086;2023-08-31T12:29:05;18.60;99.90
26049;DHT22;13822;51.568;5.086;2023-08-31T12:34:07;18.50;99.90
26049;DHT22;13822;51.568;5.086;2023-08-31T12:39:10;18.30;99.90
26049;DHT22;13822;51.568;5.086;2023-08-31T12:44:13;17.90;99.90
26049;DHT22;13822;51.568;5.086;2023-08-31T12:49:15;17.50;99.90
26049;DHT22;13822;51.568;5.086;2023-08-31T12:54:19;17.20;99.90
26049;DHT22;13822;51.568;5.086;2023-08-31T12:59:21;17.00;99.90
26049;DHT22;13822;51.568;5.086;2023-08-31T13:04:23;16.90;99.90
26049;DHT22;13822;51.568;5.086;2023-08-31T13:09:25;17.00;99.90
26049;DHT22;13822;51.568;5.086;2023-08-31T13:14:27;17.50;99.90
26049;DHT22;13822;51.568;5.086;2023-08-31T13:19:29;18.50;99.90
26049;DHT22;13822;51.568;5.086;2023-08-31T13:24:31;19.50;99.90
26049;DHT22;13822;51.568;5.086;2023-08-31T13:29:33;20.20;99.90
26049;DHT22;13822;51.568;5.086;2023-08-31T13:34:35;21.10;99.90
26049;DHT22;13822;51.568;5.086;2023-08-31T13:39:38;21.70;99.90
26049;DHT22;13822;51.568;5.086;2023-08-31T13:44:42;22.00;99.90
26049;DHT22;13822;51.568;5.086;2023-08-31T13:49:44;22.10;99.90
26049;DHT22;13822;51.568;5.086;2023-08-31T13:54:46;21.80;99.90
26049;DHT22;13822;51.568;5.086;2023-08-31T13:59:48;21.30;99.90
26049;DHT22;13822;51.568;5.086;2023-08-31T14:04:50;21.00;99.90
26049;DHT22;13822;51.568;5.086;2023-08-31T14:09:52;20.70;99.90
26049;DHT22;13822;51.568;5.086;2023-08-31T14:14:54;21.20;99.90
26049;DHT22;13822;51.568;5.086;2023-08-31T14:19:58;22.10;99.90
26049;DHT22;13822;51.568;5.086;2023-08-31T14:25:00;22.90;99.90
26049;DHT22;13822;51.568;5.086;2023-08-31T14:30:03;23.60;99.90
26049;DHT22;13822;51.568;5.086;2023-08-31T14:35:06;24.00;99.90
26049;DHT22;13822;51.568;5.086;2023-08-31T14:40:08;24.20;99.90
26049;DHT22;13822;51.568;5.086;2023-08-31T14:45:11;24.20;99.90
26049;DHT22;13822;51.568;5.086;2023-08-31T14:50:13;24.20;99.90
26049;DHT22;13822;51.568;5.086;2023-08-31T14:55:15;24.40;99.90
26049;DHT22;13822;51.568;5.086;2023-08-31T15:00:16;24.50;99.70
26049;DHT22;13822;51.568;5.086;2023-08-31T15:05:20;24.20;99.60
26049;DHT22;13822;51.568;5.086;2023-08-31T15:10:22;23.40;98.40
26049;DHT22;13822;51.568;5.086;2023-08-31T15:15:27;22.90;99.90
26049;DHT22;13822;51.568;5.086;2023-08-31T15:20:29;22.50;99.90
26049;DHT22;13822;51.568;5.086;2023-08-31T15:25:32;22.10;99.90
26049;DHT22;13822;51.568;5.086;2023-08-31T15:30:34;21.70;99.90
26049;DHT22;13822;51.568;5.086;2023-08-31T15:35:36;21.30;99.90
26049;DHT22;13822;51.568;5.086;2023-08-31T15:40:38;21.00;99.90
26049;DHT22;13822;51.568;5.086;2023-08-31T15:45:41;20.80;99.90
26049;DHT22;13822;51.568;5.086;2023-08-31T15:50:46;20.70;99.90
26049;DHT22;13822;51.568;5.086;2023-08-31T15:55:48;20.60;99.90
26049;DHT22;13822;51.568;5.086;2023-08-31T16:00:51;20.30;99.90
26049;DHT22;13822;51.568;5.086;2023-08-31T16:05:52;20.10;99.90
26049;DHT22;13822;51.568;5.086;2023-08-31T16:10:54;19.90;99.90
26049;DHT22;13822;51.568;5.086;2023-08-31T16:15:57;19.80;99.90
26049;DHT22;13822;51.568;5.086;2023-08-31T16:20:59;19.80;99.90
26049;DHT22;13822;51.568;5.086;2023-08-31T16:26:01;19.70;99.90
26049;DHT22;13822;51.568;5.086;2023-08-31T16:31:04;19.70;99.90
26049;DHT22;13822;51.568;5.086;2023-08-31T16:36:06;19.70;99.90
26049;DHT22;13822;51.568;5.086;2023-08-31T16:41:08;19.70;99.90
26049;DHT22;13822;51.568;5.086;2023-08-31T16:46:10;19.60;99.90
26049;DHT22;13822;51.568;5.086;2023-08-31T16:51:12;19.60;99.90
26049;DHT22;13822;51.568;5.086;2023-08-31T16:56:14;19.50;99.90
26049;DHT22;13822;51.568;5.086;2023-08-31T17:01:16;19.40;99.90
26049;DHT22;13822;51.568;5.086;2023-08-31T17:06:18;19.30;99.90
26049;DHT22;13822;51.568;5.086;2023-08-31T17:11:20;19.30;99.90
26049;DHT22;13822;51.568;5.086;2023-08-31T17:16:22;19.30;99.90
26049;DHT22;13822;51.568;5.086;2023-08-31T17:21:25;19.20;99.90
26049;DHT22;13822;51.568;5.086;2023-08-31T17:26:27;19.20;99.90
26049;DHT22;13822;51.568;5.086;2023-08-31T17:31:29;19.20;99.90
26049;DHT22;13822;51.568;5.086;2023-08-31T17:36:31;19.20;99.90
26049;DHT22;13822;51.568;5.086;2023-08-31T17:41:33;19.30;99.90
26049;DHT22;13822;51.568;5.086;2023-08-31T17:46:36;19.30;99.90
26049;DHT22;13822;51.568;5.086;2023-08-31T17:51:38;19.20;99.90
26049;DHT22;13822;51.568;5.086;2023-08-31T17:56:41;19.10;99.90
26049;DHT22;13822;51.568;5.086;2023-08-31T18:01:43;19.10;99.90
26049;DHT22;13822;51.568;5.086;2023-08-31T18:06:49;18.90;99.90
26049;DHT22;13822;51.568;5.086;2023-08-31T18:11:53;18.90;99.90
26049;DHT22;13822;51.568;5.086;2023-08-31T18:16:55;18.70;99.90
26049;DHT22;13822;51.568;5.086;2023-08-31T18:21:57;18.60;99.90
26049;DHT22;13822;51.568;5.086;2023-08-31T18:26:59;18.60;99.90
26049;DHT22;13822;51.568;5.086;2023-08-31T18:32:01;18.50;99.90
26049;DHT22;13822;51.568;5.086;2023-08-31T18:37:03;18.40;99.90
26049;DHT22;13822;51.568;5.086;2023-08-31T18:42:05;18.30;99.90
26049;DHT22;13822;51.568;5.086;2023-08-31T18:47:08;18.30;99.90
26049;DHT22;13822;51.568;5.086;2023-08-31T18:52:10;18.20;99.90
26049;DHT22;13822;51.568;5.086;2023-08-31T18:57:14;18.00;99.90
26049;DHT22;13822;51.568;5.086;2023-08-31T19:02:15;18.00;99.90
